createdAt,value
2023-04-11T00:04:19.800Z,989.30
2023-04-11T00:14:28.014Z,989.36
2023-04-11T00:19:30.270Z,989.39
2023-04-11T00:24:41.447Z,989.58
2023-04-11T00:29:43.714Z,989.44
2023-04-11T00:34:54.896Z,989.37
2023-04-11T00:40:06.083Z,989.37
2023-04-11T00:45:17.182Z,989.63
2023-04-11T00:50:28.394Z,989.43
2023-04-11T00:55:30.634Z,989.48
2023-04-11T01:00:41.849Z,989.43
2023-04-11T01:05:52.953Z,989.50
2023-04-11T01:10:55.270Z,989.55
2023-04-11T01:15:59.405Z,989.64
2023-04-11T01:21:03.615Z,989.49
2023-04-11T01:26:08.095Z,989.47
2023-04-11T01:31:11.964Z,989.49
2023-04-11T01:36:16.063Z,989.46
2023-04-11T01:41:20.233Z,989.50
2023-04-11T01:46:24.393Z,989.51
2023-04-11T01:51:28.573Z,989.52
2023-04-11T01:56:32.742Z,989.45
2023-04-11T02:01:36.922Z,989.36
2023-04-11T02:06:41.036Z,989.53
2023-04-11T02:11:45.212Z,989.60
2023-04-11T02:16:49.393Z,989.71
2023-04-11T02:21:53.547Z,989.92
2023-04-11T02:26:57.714Z,989.85
2023-04-11T02:32:01.947Z,989.83
2023-04-11T02:37:06.020Z,989.96
2023-04-11T02:42:10.173Z,989.98
2023-04-11T02:47:14.354Z,989.99
2023-04-11T02:52:18.506Z,990.05
2023-04-11T02:57:20.779Z,990.18
2023-04-11T03:02:25.009Z,990.14
2023-04-11T03:07:27.201Z,990.33
2023-04-11T03:12:31.472Z,990.33
2023-04-11T03:17:35.531Z,990.34
2023-04-11T03:22:39.697Z,990.36
2023-04-11T03:27:43.874Z,990.45
2023-04-11T03:32:48.196Z,990.40
2023-04-11T03:37:52.692Z,990.44
2023-04-11T03:42:56.349Z,990.49
2023-04-11T03:48:00.596Z,990.42
2023-04-11T03:53:04.696Z,990.45
2023-04-11T03:58:08.820Z,990.46
2023-04-11T04:03:13.196Z,990.47
2023-04-11T04:08:17.149Z,990.61
2023-04-11T04:13:21.353Z,990.80
2023-04-11T04:18:25.478Z,990.86
2023-04-11T04:23:29.606Z,990.89
2023-04-11T04:28:33.774Z,990.94
2023-04-11T04:33:37.950Z,990.99
2023-04-11T04:38:42.336Z,990.97
2023-04-11T04:43:46.281Z,991.04
2023-04-11T04:48:50.477Z,991.04
2023-04-11T04:53:52.727Z,991.15
2023-04-11T04:58:56.909Z,991.17
2023-04-11T05:04:01.722Z,991.14
2023-04-11T05:09:03.299Z,991.19
2023-04-11T05:14:07.460Z,991.32
2023-04-11T05:19:11.640Z,991.35
2023-04-11T05:24:15.806Z,991.55
2023-04-11T05:29:19.930Z,991.40
2023-04-11T05:34:24.154Z,991.46
2023-04-11T05:39:28.267Z,991.49
2023-04-11T05:44:32.423Z,991.54
2023-04-11T05:49:36.609Z,991.63
2023-04-11T05:54:40.783Z,991.48
2023-04-11T05:59:44.938Z,991.46
2023-04-11T06:04:49.204Z,991.53
2023-04-11T06:09:53.270Z,991.51
2023-04-11T06:14:57.454Z,991.47
2023-04-11T06:20:02.911Z,991.56
2023-04-11T06:25:05.738Z,991.84
2023-04-11T06:30:09.876Z,991.93
2023-04-11T06:35:14.096Z,992.06
2023-04-11T06:40:18.218Z,992.01
2023-04-11T06:45:22.429Z,992.10
2023-04-11T06:50:26.581Z,991.82
2023-04-11T06:55:28.824Z,991.59
2023-04-11T07:00:32.997Z,991.30
2023-04-11T07:05:35.917Z,991.21
2023-04-11T07:10:39.456Z,991.08
2023-04-11T07:15:43.583Z,991.02
2023-04-11T07:20:47.738Z,990.51
2023-04-11T07:25:51.940Z,990.71
2023-04-11T07:30:56.071Z,990.70
2023-04-11T07:36:00.373Z,990.71
2023-04-11T07:41:04.420Z,990.83
2023-04-11T07:46:08.589Z,990.70
2023-04-11T07:51:12.720Z,990.75
2023-04-11T07:56:16.882Z,990.68
2023-04-11T08:01:21.098Z,990.64
2023-04-11T08:06:25.207Z,990.60
2023-04-11T08:11:29.446Z,990.66
2023-04-11T08:16:33.594Z,990.67
2023-04-11T08:21:37.695Z,990.60
2023-04-11T08:26:41.842Z,990.48
2023-04-11T08:31:45.988Z,990.66
2023-04-11T08:36:50.177Z,990.58
2023-04-11T08:41:54.340Z,990.72
2023-04-11T08:46:58.548Z,990.54
2023-04-11T08:52:00.813Z,990.73
2023-04-11T08:57:04.922Z,990.84
2023-04-11T09:02:07.473Z,990.97
2023-04-11T09:07:11.339Z,991.03
2023-04-11T09:12:15.495Z,991.10
2023-04-11T09:17:19.715Z,991.52
2023-04-11T09:22:23.805Z,992.04
2023-04-11T09:27:28.012Z,991.71
2023-04-11T09:32:32.325Z,992.12
2023-04-11T09:37:36.358Z,992.27
2023-04-11T09:42:40.519Z,992.35
2023-04-11T09:47:45.016Z,992.86
2023-04-11T09:52:48.821Z,992.38
2023-04-11T09:57:52.999Z,992.52
2023-04-11T10:02:57.375Z,992.55
2023-04-11T10:08:01.271Z,992.54
2023-04-11T10:13:05.437Z,992.33
2023-04-11T10:18:09.659Z,992.15
2023-04-11T10:23:13.773Z,992.80
2023-04-11T10:28:17.894Z,992.49
2023-04-11T10:33:22.076Z,992.33
2023-04-11T10:38:26.274Z,992.95
2023-04-11T10:43:30.408Z,994.09
2023-04-11T10:48:32.692Z,998.95
2023-04-11T10:53:36.875Z,1001.51
2023-04-11T10:58:39.125Z,1001.85
2023-04-11T11:03:43.474Z,1001.99
2023-04-11T11:13:51.565Z,1002.05
2023-04-11T11:24:00.051Z,1002.54
2023-04-11T11:29:04.071Z,1002.41
2023-04-11T11:34:22.675Z,1002.40
2023-04-11T11:39:12.394Z,1002.53
2023-04-11T11:44:16.548Z,1002.43
2023-04-11T11:49:20.754Z,1002.81
2023-04-11T11:54:24.892Z,1002.85
2023-04-11T11:59:29.037Z,1003.05
2023-04-11T12:04:31.382Z,1003.11
2023-04-11T12:09:42.468Z,1003.05
2023-04-11T12:14:53.673Z,1003.18
2023-04-11T12:20:04.789Z,1003.05
2023-04-11T12:25:15.968Z,1003.14
2023-04-11T12:30:28.264Z,1003.40
2023-04-11T12:35:38.297Z,1003.32
2023-04-11T12:40:49.661Z,1003.33
2023-04-11T12:56:07.035Z,1003.41
2023-04-11T13:01:09.488Z,1003.42
2023-04-11T13:06:27.497Z,1003.47
2023-04-11T13:11:45.710Z,1003.50
2023-04-11T13:17:03.849Z,1003.63
2023-04-11T13:22:22.064Z,1003.61
2023-04-11T13:27:31.356Z,1003.65
2023-04-11T13:32:42.470Z,1003.60
2023-04-11T13:37:53.667Z,1003.67
2023-04-11T13:43:04.787Z,1003.59
2023-04-11T13:48:16.068Z,1003.55
2023-04-11T13:53:34.170Z,1003.55
2023-04-11T13:58:38.361Z,1003.65
2023-04-11T14:03:40.719Z,1003.49
2023-04-11T14:08:44.784Z,1003.49
2023-04-11T14:13:48.897Z,1003.48
2023-04-11T14:18:53.077Z,1003.48
2023-04-11T14:23:57.437Z,1003.57
2023-04-11T14:29:01.427Z,1003.41
2023-04-11T14:34:05.515Z,1003.45
2023-04-11T14:39:09.708Z,1003.29
2023-04-11T14:44:13.851Z,1003.27
2023-04-11T14:49:18.121Z,1003.25
2023-04-11T14:54:22.171Z,1003.19
2023-04-11T14:59:26.382Z,1003.34
2023-04-11T15:04:30.581Z,1003.18
2023-04-11T15:09:34.725Z,1003.22
2023-04-11T15:14:38.803Z,1003.14
2023-04-11T15:19:42.976Z,1003.19
2023-04-11T15:24:47.124Z,1003.12
2023-04-11T15:29:51.315Z,1003.02
2023-04-11T15:34:55.430Z,1003.04
2023-04-11T15:39:59.619Z,1003.02
2023-04-11T15:45:03.797Z,1003.03
2023-04-11T15:50:06.127Z,1002.93
2023-04-11T15:55:10.245Z,1002.89
2023-04-11T16:00:14.355Z,1002.88
2023-04-11T16:05:18.647Z,1002.77
2023-04-11T16:10:22.744Z,1002.86
2023-04-11T16:15:26.849Z,1002.82
2023-04-11T16:20:31.041Z,1002.71
2023-04-11T16:25:35.203Z,1002.73
2023-04-11T16:30:39.322Z,1002.69
2023-04-11T16:35:43.504Z,1002.60
2023-04-11T16:40:47.796Z,1002.66
2023-04-11T16:45:51.851Z,1002.56
2023-04-11T16:50:56.015Z,1002.59
2023-04-11T16:56:00.165Z,1002.73
2023-04-11T17:01:04.333Z,1002.76
2023-04-11T17:06:08.461Z,1002.73
2023-04-11T17:11:12.623Z,1002.76
2023-04-11T17:16:16.837Z,1002.78
2023-04-11T17:21:20.900Z,1002.76
2023-04-11T17:26:25.067Z,1002.67
2023-04-11T17:31:29.447Z,1002.66
2023-04-11T17:36:31.524Z,1002.70
2023-04-11T17:41:35.671Z,1002.52
2023-04-11T17:46:38.185Z,1002.49
2023-04-11T17:51:48.779Z,1002.36
2023-04-11T17:56:44.414Z,1002.44
2023-04-11T18:01:48.612Z,1002.36
2023-04-11T18:06:52.776Z,1002.30
2023-04-11T18:11:56.889Z,1002.21
2023-04-11T18:17:01.119Z,1002.11
2023-04-11T18:22:05.191Z,1001.98
2023-04-11T18:32:13.511Z,1001.53
2023-04-11T18:37:17.778Z,1001.36
2023-04-11T18:42:21.853Z,1001.06
2023-04-11T18:47:26.125Z,1000.84
2023-04-11T18:52:30.186Z,1000.56
2023-04-11T18:57:36.231Z,1000.15
2023-04-11T19:02:38.598Z,999.43
2023-04-11T19:07:42.688Z,997.92
2023-04-11T19:12:46.836Z,996.10
2023-04-11T19:17:51.044Z,994.56
2023-04-11T19:22:55.126Z,993.94
2023-04-11T19:27:59.315Z,993.57
2023-04-11T19:33:03.602Z,993.28
2023-04-11T19:38:07.651Z,992.36
2023-04-11T19:43:11.788Z,991.58
2023-04-11T19:53:18.628Z,991.19
2023-04-11T19:58:20.460Z,990.91
2023-04-11T20:03:24.857Z,990.86
2023-04-11T20:08:26.908Z,990.70
2023-04-11T20:13:31.238Z,990.70
2023-04-11T20:18:35.276Z,990.59
2023-04-11T20:23:39.431Z,990.55
2023-04-11T20:28:43.561Z,990.34
2023-04-11T20:33:47.733Z,990.25
2023-04-11T20:38:51.863Z,990.19
2023-04-11T20:43:56.370Z,990.12
2023-04-11T20:49:00.211Z,990.04
2023-04-11T20:54:04.371Z,989.90
2023-04-11T20:59:08.523Z,989.78
2023-04-11T21:04:12.888Z,989.69
2023-04-11T21:09:16.840Z,989.69
2023-04-11T21:14:21.021Z,989.66
2023-04-11T21:19:25.137Z,989.60
2023-04-11T21:24:29.406Z,989.58
2023-04-11T21:29:33.513Z,989.55
2023-04-11T21:34:37.881Z,989.50
2023-04-11T21:39:41.800Z,989.41
2023-04-11T21:44:46.014Z,989.24
2023-04-11T21:49:50.120Z,989.47
2023-04-11T21:54:52.417Z,989.48
2023-04-11T21:59:56.578Z,989.56
2023-04-11T22:05:06.390Z,989.54
2023-04-11T22:10:03.000Z,989.54
2023-04-11T22:15:07.185Z,989.61
2023-04-11T22:20:11.363Z,989.59
2023-04-11T22:25:15.499Z,989.71
2023-04-11T22:30:19.666Z,989.50
2023-04-11T22:35:23.858Z,989.23
2023-04-11T22:40:28.012Z,989.31
2023-04-11T22:45:32.194Z,989.18
2023-04-11T22:50:36.301Z,988.71
2023-04-11T22:55:40.503Z,988.69
2023-04-11T23:00:44.718Z,988.65
2023-04-11T23:05:48.804Z,988.62
2023-04-11T23:10:52.952Z,988.77
2023-04-11T23:15:57.102Z,988.69
2023-04-11T23:21:01.289Z,988.63
2023-04-11T23:26:05.448Z,988.56
2023-04-11T23:31:09.604Z,988.48
2023-04-11T23:36:13.858Z,988.31
2023-04-11T23:41:17.905Z,988.12
2023-04-11T23:46:22.127Z,987.98
2023-04-11T23:51:24.384Z,987.92
2023-04-11T23:56:28.507Z,987.76
